createdAt,value
2018-07-09T00:00:20.879Z,12.79
2018-07-09T00:01:20.866Z,12.79
2018-07-09T00:02:20.852Z,12.73
2018-07-09T00:03:20.855Z,12.70
2018-07-09T00:04:20.845Z,12.68
2018-07-09T00:05:20.825Z,12.65
2018-07-09T00:06:20.855Z,12.73
2018-07-09T00:07:20.795Z,12.61
2018-07-09T00:08:20.801Z,12.73
2018-07-09T00:09:20.786Z,12.72
2018-07-09T00:10:20.769Z,12.58
2018-07-09T00:11:20.752Z,12.58
2018-07-09T00:12:20.744Z,12.55
2018-07-09T00:13:20.746Z,12.54
2018-07-09T00:14:20.728Z,12.43
2018-07-09T00:15:20.721Z,12.47
2018-07-09T00:16:20.719Z,12.49
2018-07-09T00:17:20.698Z,12.46
2018-07-09T00:18:20.686Z,12.55
2018-07-09T00:19:20.687Z,12.45
2018-07-09T00:20:20.676Z,12.49
2018-07-09T00:21:20.656Z,12.50
2018-07-09T00:22:20.633Z,12.46
2018-07-09T00:23:20.629Z,12.35
2018-07-09T00:24:20.646Z,12.40
2018-07-09T00:25:20.603Z,12.35
2018-07-09T00:26:20.590Z,12.32
2018-07-09T00:27:20.587Z,12.25
2018-07-09T00:28:20.575Z,12.22
2018-07-09T00:29:20.566Z,12.17
2018-07-09T00:30:20.557Z,12.10
2018-07-09T00:31:20.535Z,12.06
2018-07-09T00:32:20.605Z,11.99
2018-07-09T00:33:20.529Z,12.02
2018-07-09T00:34:20.509Z,11.99
2018-07-09T00:35:20.505Z,11.97
2018-07-09T00:36:20.486Z,11.94
2018-07-09T00:37:20.476Z,11.95
2018-07-09T00:38:20.496Z,11.86
2018-07-09T00:39:20.452Z,11.86
2018-07-09T00:40:20.448Z,11.90
2018-07-09T00:41:20.444Z,11.86
2018-07-09T00:42:20.424Z,11.83
2018-07-09T00:43:20.410Z,11.88
2018-07-09T00:44:20.397Z,11.83
2018-07-09T00:45:20.391Z,11.78
2018-07-09T00:46:20.377Z,11.73
2018-07-09T00:47:20.384Z,11.73
2018-07-09T00:48:20.384Z,11.72
2018-07-09T00:49:20.378Z,11.80
2018-07-09T00:50:20.374Z,11.70
2018-07-09T00:51:20.348Z,11.75
2018-07-09T00:52:20.353Z,11.75
2018-07-09T00:53:20.334Z,11.75
2018-07-09T00:54:20.346Z,11.66
2018-07-09T00:55:20.373Z,11.65
2018-07-09T00:56:20.299Z,11.54
2018-07-09T00:57:20.282Z,11.52
2018-07-09T00:58:20.254Z,11.55
2018-07-09T00:59:20.254Z,11.59
2018-07-09T01:00:20.240Z,11.55
2018-07-09T01:01:20.224Z,11.63
2018-07-09T01:02:20.210Z,11.55
2018-07-09T01:03:20.192Z,11.55
2018-07-09T01:04:20.184Z,11.59
2018-07-09T01:05:20.173Z,11.54
2018-07-09T01:06:20.165Z,11.55
2018-07-09T01:07:20.177Z,11.51
2018-07-09T01:08:20.141Z,11.51
2018-07-09T01:09:20.132Z,11.55
2018-07-09T01:10:20.123Z,11.37
2018-07-09T01:11:20.135Z,11.55
2018-07-09T01:12:20.098Z,11.45
2018-07-09T01:13:20.090Z,11.41
2018-07-09T01:14:20.081Z,11.43
2018-07-09T01:15:20.064Z,11.50
2018-07-09T01:16:20.058Z,11.43
2018-07-09T01:17:20.046Z,11.37
2018-07-09T01:18:20.038Z,11.33
2018-07-09T01:19:20.047Z,11.36
2018-07-09T01:20:20.035Z,11.40
2018-07-09T01:21:20.000Z,11.25
2018-07-09T01:22:19.992Z,11.27
2018-07-09T01:23:19.990Z,11.29
2018-07-09T01:24:19.977Z,11.25
2018-07-09T01:25:19.965Z,11.19
2018-07-09T01:26:19.951Z,11.22
2018-07-09T01:27:19.951Z,11.10
2018-07-09T01:28:19.923Z,11.10
2018-07-09T01:29:19.920Z,11.04
2018-07-09T01:30:19.907Z,11.04
2018-07-09T01:31:19.894Z,11.04
2018-07-09T01:32:19.910Z,10.99
2018-07-09T01:33:19.871Z,11.00
2018-07-09T01:34:19.871Z,11.02
2018-07-09T01:35:19.853Z,11.04
2018-07-09T01:36:19.845Z,10.94
2018-07-09T01:37:19.835Z,11.04
2018-07-09T01:38:19.827Z,11.08
2018-07-09T01:39:19.809Z,11.07
2018-07-09T01:40:19.801Z,11.00
2018-07-09T01:41:19.791Z,10.97
2018-07-09T01:42:19.779Z,10.97
2018-07-09T01:43:19.774Z,10.93
2018-07-09T01:44:19.759Z,10.99
2018-07-09T01:45:19.759Z,10.87
2018-07-09T01:46:19.734Z,10.86
2018-07-09T01:47:19.727Z,10.82
2018-07-09T01:48:19.717Z,10.76
2018-07-09T01:49:19.707Z,10.78
2018-07-09T01:50:19.692Z,10.89
2018-07-09T01:51:19.678Z,10.79
2018-07-09T01:52:19.666Z,10.78
2018-07-09T01:53:19.657Z,10.78
2018-07-09T01:54:19.647Z,10.75
2018-07-09T01:55:19.640Z,10.68
2018-07-09T01:56:19.657Z,10.61
2018-07-09T01:57:19.636Z,10.53
2018-07-09T01:58:19.612Z,10.51
2018-07-09T01:59:19.592Z,10.48
2018-07-09T02:00:19.579Z,10.34
2018-07-09T02:01:19.576Z,10.49
2018-07-09T02:02:19.563Z,10.53
2018-07-09T02:03:19.572Z,10.51
2018-07-09T02:04:19.549Z,10.53
2018-07-09T02:05:19.528Z,10.44
2018-07-09T02:06:19.518Z,10.40
2018-07-09T02:07:19.509Z,10.40
2018-07-09T02:08:19.529Z,10.41
2018-07-09T02:09:19.489Z,10.46
2018-07-09T02:10:19.484Z,10.42
2018-07-09T02:11:19.463Z,10.49
2018-07-09T02:12:19.452Z,10.56
2018-07-09T02:13:19.438Z,10.56
2018-07-09T02:14:19.433Z,10.53
2018-07-09T02:15:19.421Z,10.49
2018-07-09T02:16:19.423Z,10.49
2018-07-09T02:17:19.404Z,10.53
2018-07-09T02:18:19.390Z,10.57
2018-07-09T02:19:19.397Z,10.42
2018-07-09T02:20:19.369Z,10.40
2018-07-09T02:21:19.359Z,10.31
2018-07-09T02:22:19.347Z,10.22
2018-07-09T02:23:19.334Z,10.17
2018-07-09T02:24:19.349Z,10.04
2018-07-09T02:25:19.314Z,10.12
2018-07-09T02:26:19.300Z,10.02
2018-07-09T02:27:19.291Z,10.02
2018-07-09T02:28:19.284Z,10.09
2018-07-09T02:29:19.272Z,10.02
2018-07-09T02:30:19.269Z,9.95
2018-07-09T02:31:19.246Z,10.07
2018-07-09T02:32:19.232Z,10.10
2018-07-09T02:33:19.228Z,10.07
2018-07-09T02:34:19.217Z,10.10
2018-07-09T02:35:19.206Z,10.07
2018-07-09T02:36:19.191Z,9.99
2018-07-09T02:37:19.180Z,10.07
2018-07-09T02:38:19.172Z,10.02
2018-07-09T02:39:19.162Z,9.99
2018-07-09T02:40:19.184Z,10.04
2018-07-09T02:41:19.145Z,10.04
2018-07-09T02:42:19.133Z,10.01
2018-07-09T02:43:19.123Z,10.01
2018-07-09T02:44:19.104Z,9.98
2018-07-09T02:45:19.094Z,9.89
2018-07-09T02:46:19.087Z,9.74
2018-07-09T02:47:19.077Z,9.87
2018-07-09T02:48:19.070Z,9.95
2018-07-09T02:49:19.214Z,9.79
2018-07-09T02:50:19.060Z,9.83
2018-07-09T02:51:19.038Z,9.69
2018-07-09T02:52:19.026Z,9.64
2018-07-09T02:53:19.014Z,9.59
2018-07-09T02:54:19.003Z,9.48
2018-07-09T02:55:18.989Z,9.48
2018-07-09T02:56:19.005Z,9.46
2018-07-09T02:57:18.965Z,9.37
2018-07-09T02:58:18.957Z,9.32
2018-07-09T02:59:18.947Z,9.40
2018-07-09T03:00:18.940Z,9.37
2018-07-09T03:01:18.961Z,9.32
2018-07-09T03:02:18.923Z,9.31
2018-07-09T03:03:18.902Z,9.32
2018-07-09T03:04:18.889Z,9.46
2018-07-09T03:05:18.884Z,9.55
2018-07-09T03:06:18.877Z,9.50
2018-07-09T03:07:18.879Z,9.46
2018-07-09T03:08:18.894Z,9.46
2018-07-09T03:09:18.887Z,9.56
2018-07-09T03:10:18.828Z,9.40
2018-07-09T03:11:18.819Z,9.46
2018-07-09T03:12:18.812Z,9.37
2018-07-09T03:13:18.807Z,9.37
2018-07-09T03:14:18.789Z,9.29
2018-07-09T03:15:18.770Z,9.22
2018-07-09T03:16:18.762Z,9.22
2018-07-09T03:17:18.770Z,9.19
2018-07-09T03:18:18.758Z,9.28
2018-07-09T03:19:18.738Z,9.36
2018-07-09T03:20:18.725Z,9.34
2018-07-09T03:21:18.708Z,9.37
2018-07-09T03:22:18.724Z,9.34
2018-07-09T03:23:18.693Z,9.32
2018-07-09T03:24:18.678Z,9.34
2018-07-09T03:25:18.667Z,9.29
2018-07-09T03:26:18.660Z,9.26
2018-07-09T03:27:18.642Z,9.22
2018-07-09T03:28:18.634Z,9.23
2018-07-09T03:29:18.623Z,9.23
2018-07-09T03:30:18.610Z,9.21
2018-07-09T03:31:18.608Z,9.22
2018-07-09T03:32:18.593Z,9.18
2018-07-09T03:33:18.586Z,9.10
2018-07-09T03:34:18.575Z,9.14
2018-07-09T03:35:18.561Z,9.13
2018-07-09T03:36:18.553Z,9.03
2018-07-09T03:37:18.571Z,8.97
2018-07-09T03:38:18.566Z,9.02
2018-07-09T03:39:18.514Z,9.03
2018-07-09T03:40:18.504Z,9.04
2018-07-09T03:41:18.493Z,9.02
2018-07-09T03:42:18.485Z,9.04
2018-07-09T03:43:18.502Z,9.03
2018-07-09T03:44:18.464Z,9.11
2018-07-09T03:45:18.461Z,9.10
2018-07-09T03:46:18.456Z,9.23
2018-07-09T03:47:18.465Z,9.18
2018-07-09T03:48:18.466Z,9.23
2018-07-09T03:49:18.407Z,9.21
2018-07-09T03:50:18.394Z,9.16
2018-07-09T03:51:18.390Z,9.19
2018-07-09T03:52:18.377Z,9.21
2018-07-09T03:53:18.414Z,9.19
2018-07-09T03:54:18.351Z,9.31
2018-07-09T03:55:18.352Z,9.32
2018-07-09T03:56:18.334Z,9.29
2018-07-09T03:57:18.324Z,9.26
2018-07-09T03:58:18.316Z,9.19
2018-07-09T03:59:18.302Z,9.25
2018-07-09T04:00:18.288Z,9.26
2018-07-09T04:01:18.280Z,9.22
2018-07-09T04:02:18.355Z,9.23
2018-07-09T04:03:18.262Z,9.22
2018-07-09T04:04:18.268Z,9.23
2018-07-09T04:05:18.237Z,9.34
2018-07-09T04:06:18.228Z,9.40
2018-07-09T04:07:18.212Z,9.40
2018-07-09T04:08:18.203Z,9.36
2018-07-09T04:09:18.224Z,9.50
2018-07-09T04:10:18.186Z,9.46
2018-07-09T04:11:18.169Z,9.43
2018-07-09T04:12:18.162Z,9.50
2018-07-09T04:13:18.149Z,9.43
2018-07-09T04:14:18.136Z,9.44
2018-07-09T04:15:18.134Z,9.41
2018-07-09T04:16:18.119Z,9.43
2018-07-09T04:17:18.109Z,9.37
2018-07-09T04:18:18.099Z,9.34
2018-07-09T04:19:18.085Z,9.36
2018-07-09T04:20:18.122Z,9.34
2018-07-09T04:21:18.062Z,9.44
2018-07-09T04:22:18.050Z,9.46
2018-07-09T04:23:18.051Z,9.46
2018-07-09T04:24:18.040Z,9.47
2018-07-09T04:25:18.025Z,9.46
2018-07-09T04:26:18.047Z,9.58
2018-07-09T04:27:18.006Z,9.65
2018-07-09T04:28:17.991Z,9.64
2018-07-09T04:29:17.980Z,9.59
2018-07-09T04:30:17.992Z,9.76
2018-07-09T04:31:17.961Z,9.61
2018-07-09T04:32:17.968Z,9.61
2018-07-09T04:33:17.957Z,9.68
2018-07-09T04:34:17.928Z,9.86
2018-07-09T04:35:17.917Z,9.82
2018-07-09T04:36:17.924Z,9.89
2018-07-09T04:37:17.891Z,9.98
2018-07-09T04:38:17.883Z,10.10
2018-07-09T04:39:17.868Z,10.04
2018-07-09T04:40:17.858Z,10.10
2018-07-09T04:41:17.888Z,10.13
2018-07-09T04:42:17.842Z,10.20
2018-07-09T04:43:17.882Z,10.30
2018-07-09T04:44:17.814Z,10.38
2018-07-09T04:45:17.804Z,10.54
2018-07-09T04:46:17.813Z,10.51
2018-07-09T04:47:17.811Z,10.59
2018-07-09T04:48:17.783Z,10.60
2018-07-09T04:49:17.763Z,10.68
2018-07-09T04:50:17.755Z,10.64
2018-07-09T04:51:17.737Z,10.63
2018-07-09T04:52:17.747Z,10.63
2018-07-09T04:53:17.718Z,10.61
2018-07-09T04:54:17.705Z,10.71
2018-07-09T04:55:17.705Z,10.82
2018-07-09T04:56:17.687Z,10.76
2018-07-09T04:57:17.702Z,10.97
2018-07-09T04:58:17.674Z,11.05
2018-07-09T04:59:17.659Z,11.02
2018-07-09T05:00:17.644Z,11.04
2018-07-09T05:01:17.639Z,11.17
2018-07-09T05:02:17.662Z,11.15
2018-07-09T05:03:17.630Z,11.22
2018-07-09T05:04:17.602Z,11.25
2018-07-09T05:05:17.588Z,11.30
2018-07-09T05:06:17.575Z,11.40
2018-07-09T05:07:17.572Z,11.36
2018-07-09T05:08:17.582Z,11.52
2018-07-09T05:09:17.547Z,11.50
2018-07-09T05:10:17.541Z,11.59
2018-07-09T05:11:17.528Z,11.66
2018-07-09T05:12:17.512Z,11.69
2018-07-09T05:13:17.504Z,11.81
2018-07-09T05:14:17.508Z,11.73
2018-07-09T05:15:17.477Z,11.73
2018-07-09T05:16:17.469Z,11.78
2018-07-09T05:17:17.458Z,11.84
2018-07-09T05:18:17.445Z,11.97
2018-07-09T05:19:17.459Z,12.02
2018-07-09T05:20:17.446Z,11.90
2018-07-09T05:21:17.417Z,12.04
2018-07-09T05:22:17.409Z,12.10
2018-07-09T05:23:17.393Z,12.10
2018-07-09T05:24:17.384Z,12.20
2018-07-09T05:25:17.379Z,12.18
2018-07-09T05:26:17.419Z,12.29
2018-07-09T05:27:17.355Z,12.36
2018-07-09T05:28:17.343Z,12.36
2018-07-09T05:29:17.370Z,12.47
2018-07-09T05:30:17.318Z,12.64
2018-07-09T05:31:17.312Z,12.62
2018-07-09T05:32:17.299Z,12.70
2018-07-09T05:33:17.346Z,12.68
2018-07-09T05:34:17.280Z,12.85
2018-07-09T05:35:17.265Z,12.86
2018-07-09T05:36:17.257Z,12.87
2018-07-09T05:37:17.247Z,12.86
2018-07-09T05:38:17.232Z,12.93
2018-07-09T05:39:17.255Z,13.03
2018-07-09T05:40:17.220Z,13.04
2018-07-09T05:41:17.203Z,13.12
2018-07-09T05:42:17.196Z,13.12
2018-07-09T05:43:17.200Z,13.22
2018-07-09T05:44:17.167Z,13.39
2018-07-09T05:45:17.162Z,13.39
2018-07-09T05:46:17.169Z,13.52
2018-07-09T05:47:17.134Z,13.65
2018-07-09T05:48:17.128Z,13.72
2018-07-09T05:49:17.118Z,13.71
2018-07-09T05:50:17.113Z,13.81
2018-07-09T05:51:17.103Z,13.85
2018-07-09T05:52:17.084Z,13.83
2018-07-09T05:53:17.075Z,13.95
2018-07-09T05:54:17.063Z,13.97
2018-07-09T05:55:17.049Z,14.05
2018-07-09T05:56:17.036Z,14.17
2018-07-09T05:57:17.033Z,14.20
2018-07-09T05:58:17.012Z,14.18
2018-07-09T05:59:17.008Z,14.32
2018-07-09T06:00:17.021Z,14.44
2018-07-09T06:01:16.983Z,14.50
2018-07-09T06:02:16.975Z,14.53
2018-07-09T06:03:16.967Z,14.51
2018-07-09T06:04:16.977Z,14.65
2018-07-09T06:05:17.004Z,14.77
2018-07-09T06:06:16.954Z,14.81
2018-07-09T06:07:16.914Z,14.92
2018-07-09T06:08:16.906Z,14.92
2018-07-09T06:09:16.895Z,15.04
2018-07-09T06:10:16.885Z,15.00
2018-07-09T06:11:16.980Z,15.00
2018-07-09T06:12:16.866Z,14.97
2018-07-09T06:13:16.873Z,14.96
2018-07-09T06:14:16.846Z,15.00
2018-07-09T06:15:16.833Z,14.99
2018-07-09T06:16:16.825Z,15.03
2018-07-09T06:17:16.813Z,15.03
2018-07-09T06:18:16.809Z,15.04
2018-07-09T06:19:16.837Z,15.06
2018-07-09T06:20:16.782Z,15.11
2018-07-09T06:21:16.768Z,15.06
2018-07-09T06:22:16.764Z,15.15
2018-07-09T06:23:16.749Z,15.14
2018-07-09T06:24:16.736Z,15.17
2018-07-09T06:25:16.761Z,15.11
2018-07-09T06:26:16.757Z,15.28
2018-07-09T06:27:16.699Z,15.28
2018-07-09T06:28:16.691Z,15.27
2018-07-09T06:29:16.680Z,15.31
2018-07-09T06:30:16.667Z,15.37
2018-07-09T06:31:16.663Z,15.37
2018-07-09T06:32:16.654Z,15.43
2018-07-09T06:33:16.638Z,15.43
2018-07-09T06:34:16.625Z,15.49
2018-07-09T06:35:16.640Z,15.51
2018-07-09T06:36:16.609Z,15.57
2018-07-09T06:37:16.605Z,15.54
2018-07-09T06:38:16.589Z,15.46
2018-07-09T06:39:16.570Z,15.54
2018-07-09T06:40:16.578Z,15.64
2018-07-09T06:41:16.558Z,15.68
2018-07-09T06:42:16.539Z,15.68
2018-07-09T06:43:16.537Z,15.65
2018-07-09T06:44:16.522Z,15.68
2018-07-09T06:45:16.511Z,15.73
2018-07-09T06:46:16.513Z,15.82
2018-07-09T06:47:16.505Z,15.79
2018-07-09T06:48:16.546Z,15.90
2018-07-09T06:49:16.467Z,15.91
2018-07-09T06:50:16.478Z,15.91
2018-07-09T06:51:16.465Z,15.91
2018-07-09T06:52:16.485Z,15.92
2018-07-09T06:53:16.422Z,15.92
2018-07-09T06:54:16.412Z,15.92
2018-07-09T06:55:16.403Z,15.95
2018-07-09T06:56:16.391Z,16.04
2018-07-09T06:57:16.404Z,16.13
2018-07-09T06:58:16.370Z,16.17
2018-07-09T06:59:16.354Z,16.23
2018-07-09T07:00:16.365Z,16.21
2018-07-09T07:01:16.361Z,16.21
2018-07-09T07:02:16.348Z,16.17
2018-07-09T07:03:16.318Z,16.29
2018-07-09T07:04:16.304Z,16.33
2018-07-09T07:05:16.291Z,16.39
2018-07-09T07:06:16.283Z,16.42
2018-07-09T07:07:16.276Z,16.43
2018-07-09T07:08:16.263Z,16.46
2018-07-09T07:09:16.258Z,16.51
2018-07-09T07:10:16.243Z,16.50
2018-07-09T07:11:16.225Z,16.65
2018-07-09T07:12:16.216Z,16.76
2018-07-09T07:13:16.233Z,17.05
2018-07-09T07:14:16.292Z,17.20
2018-07-09T07:15:16.188Z,17.34
2018-07-09T07:16:16.174Z,17.36
2018-07-09T07:17:16.165Z,17.57
2018-07-09T07:18:16.176Z,17.65
2018-07-09T07:19:16.145Z,17.82
2018-07-09T07:20:16.130Z,17.85
2018-07-09T07:21:16.122Z,17.83
2018-07-09T07:22:16.115Z,17.98
2018-07-09T07:23:16.113Z,17.87
2018-07-09T07:24:16.087Z,17.92
2018-07-09T07:25:16.077Z,17.90
2018-07-09T07:26:16.074Z,17.85
2018-07-09T07:27:16.058Z,17.64
2018-07-09T07:28:16.070Z,17.63
2018-07-09T07:29:16.029Z,17.49
2018-07-09T07:30:16.021Z,17.38
2018-07-09T07:31:16.030Z,17.39
2018-07-09T07:32:16.011Z,17.42
2018-07-09T07:33:16.097Z,17.39
2018-07-09T07:34:15.988Z,17.41
2018-07-09T07:35:15.965Z,17.52
2018-07-09T07:36:15.959Z,17.54
2018-07-09T07:37:15.950Z,17.68
2018-07-09T07:38:15.972Z,17.70
2018-07-09T07:39:15.987Z,17.71
2018-07-09T07:40:15.941Z,17.82
2018-07-09T07:41:15.905Z,17.83
2018-07-09T07:42:15.893Z,17.87
2018-07-09T07:43:15.887Z,17.95
2018-07-09T07:44:15.915Z,18.03
2018-07-09T07:45:15.889Z,18.05
2018-07-09T07:46:15.883Z,18.28
2018-07-09T07:47:15.837Z,18.38
2018-07-09T07:48:15.836Z,18.45
2018-07-09T07:49:15.824Z,18.66
2018-07-09T07:50:15.906Z,18.90
2018-07-09T07:51:15.802Z,19.16
2018-07-09T07:52:15.792Z,19.49
2018-07-09T07:53:15.785Z,19.79
2018-07-09T07:54:15.800Z,20.00
2018-07-09T07:55:15.769Z,20.14
2018-07-09T07:56:15.744Z,20.40
2018-07-09T07:57:15.747Z,20.44
2018-07-09T07:58:15.724Z,20.63
2018-07-09T07:59:15.716Z,20.72
2018-07-09T08:00:15.700Z,20.75
2018-07-09T08:01:15.698Z,20.74
2018-07-09T08:02:15.675Z,20.75
2018-07-09T08:03:15.684Z,20.85
2018-07-09T08:04:15.703Z,21.14
2018-07-09T08:05:15.648Z,21.29
2018-07-09T08:06:15.662Z,21.48
2018-07-09T08:07:15.667Z,21.67
2018-07-09T08:08:15.622Z,21.73
2018-07-09T08:09:15.706Z,21.82
2018-07-09T08:10:15.735Z,21.92
2018-07-09T08:11:15.582Z,21.92
2018-07-09T08:13:00.546Z,22.08
2018-07-09T08:13:27.989Z,22.08
2018-07-09T08:14:15.608Z,22.00
2018-07-09T08:15:15.583Z,22.23
2018-07-09T08:16:15.531Z,22.44
2018-07-09T08:17:15.525Z,22.54
2018-07-09T08:18:15.513Z,22.54
2018-07-09T08:19:15.516Z,22.70
2018-07-09T08:20:15.492Z,22.78
2018-07-09T08:21:15.476Z,22.73
2018-07-09T08:22:15.473Z,22.87
2018-07-09T08:23:15.458Z,22.65
2018-07-09T08:24:15.445Z,22.51
2018-07-09T08:25:15.441Z,22.43
2018-07-09T08:26:15.425Z,22.23
2018-07-09T08:27:15.432Z,22.07
2018-07-09T08:28:15.831Z,21.93
2018-07-09T08:29:15.408Z,21.92
2018-07-09T08:30:15.417Z,21.88
2018-07-09T08:31:15.539Z,21.77
2018-07-09T08:32:15.360Z,21.75
2018-07-09T08:33:15.361Z,21.67
2018-07-09T08:34:15.338Z,21.80
2018-07-09T08:35:15.348Z,21.76
2018-07-09T08:36:15.355Z,21.51
2018-07-09T08:37:15.308Z,21.20
2018-07-09T08:38:15.324Z,21.03
2018-07-09T08:39:15.282Z,21.20
2018-07-09T08:40:15.275Z,20.95
2018-07-09T08:41:15.269Z,20.81
2018-07-09T08:42:15.267Z,21.05
2018-07-09T08:43:15.252Z,21.18
2018-07-09T08:44:15.237Z,21.39
2018-07-09T08:45:15.229Z,21.62
2018-07-09T08:46:15.223Z,21.92
2018-07-09T08:47:15.247Z,22.00
2018-07-09T08:48:15.198Z,22.06
2018-07-09T08:49:15.185Z,22.15
2018-07-09T08:50:15.190Z,22.18
2018-07-09T08:51:15.208Z,22.39
2018-07-09T08:52:15.156Z,22.84
2018-07-09T08:53:15.291Z,22.91
2018-07-09T08:54:15.316Z,22.96
2018-07-09T08:55:15.552Z,22.94
2018-07-09T08:56:15.707Z,23.06
2018-07-09T08:57:15.505Z,23.21
2018-07-09T08:58:15.406Z,23.50
2018-07-09T08:59:15.579Z,23.73
2018-07-09T09:00:15.710Z,24.05
2018-07-09T09:01:15.485Z,23.96
2018-07-09T09:02:15.486Z,23.99
2018-07-09T09:03:15.484Z,24.13
2018-07-09T09:04:15.636Z,24.08
2018-07-09T09:05:15.724Z,24.29
2018-07-09T09:06:16.603Z,24.36
2018-07-09T09:07:15.204Z,24.53
2018-07-09T09:08:15.156Z,24.63
2018-07-09T09:09:15.160Z,24.61
2018-07-09T09:10:15.185Z,24.68
2018-07-09T09:11:15.128Z,24.73
2018-07-09T09:12:15.172Z,25.04
2018-07-09T09:13:15.131Z,25.33
2018-07-09T09:14:15.118Z,25.43
2018-07-09T09:15:15.107Z,25.50
2018-07-09T09:16:15.135Z,24.99
2018-07-09T09:17:15.158Z,24.81
2018-07-09T09:18:15.303Z,24.74
2018-07-09T09:19:15.121Z,24.65
2018-07-09T09:20:14.870Z,25.13
2018-07-09T09:21:14.867Z,25.31
2018-07-09T09:22:14.886Z,25.41
2018-07-09T09:23:14.833Z,25.38
2018-07-09T09:24:14.826Z,25.59
2018-07-09T09:25:14.815Z,25.54
2018-07-09T09:26:14.868Z,25.77
2018-07-09T09:27:14.802Z,25.83
2018-07-09T09:28:14.792Z,26.34
2018-07-09T09:29:14.787Z,26.29
2018-07-09T09:30:14.764Z,26.02
2018-07-09T09:31:14.841Z,26.05
2018-07-09T09:32:14.758Z,26.18
2018-07-09T09:33:14.755Z,26.19
2018-07-09T09:34:14.734Z,26.03
2018-07-09T09:35:14.736Z,25.75
2018-07-09T09:36:14.801Z,25.84
2018-07-09T09:37:14.700Z,25.83
2018-07-09T09:38:14.687Z,25.48
2018-07-09T09:39:14.686Z,25.47
2018-07-09T09:40:14.711Z,25.51
2018-07-09T09:41:14.716Z,25.06
2018-07-09T09:42:14.717Z,24.69
2018-07-09T09:43:14.785Z,24.53
2018-07-09T09:44:14.667Z,24.99
2018-07-09T09:45:14.642Z,25.32
2018-07-09T09:46:14.622Z,25.72
2018-07-09T09:47:14.622Z,25.90
2018-07-09T09:48:14.591Z,25.99
2018-07-09T09:49:14.595Z,26.19
2018-07-09T09:50:14.567Z,26.19
2018-07-09T09:51:14.564Z,26.51
2018-07-09T09:52:14.550Z,26.48
2018-07-09T09:53:14.562Z,26.51
2018-07-09T09:54:14.531Z,26.55
2018-07-09T09:55:14.517Z,26.13
2018-07-09T09:56:14.516Z,25.63
2018-07-09T09:57:14.508Z,25.93
2018-07-09T09:58:14.495Z,26.02
2018-07-09T09:59:14.480Z,26.02
2018-07-09T10:00:14.475Z,26.22
2018-07-09T10:01:14.478Z,26.55
2018-07-09T10:02:14.445Z,26.55
2018-07-09T10:03:14.442Z,26.65
2018-07-09T10:04:14.431Z,26.68
2018-07-09T10:05:14.414Z,26.47
2018-07-09T10:06:14.416Z,26.44
2018-07-09T10:07:14.390Z,26.18
2018-07-09T10:08:14.391Z,26.19
2018-07-09T10:09:14.388Z,26.09
2018-07-09T10:10:14.359Z,26.05
2018-07-09T10:11:14.355Z,26.05
2018-07-09T10:12:14.342Z,26.18
2018-07-09T10:13:14.334Z,25.77
2018-07-09T10:14:14.323Z,25.85
2018-07-09T10:15:14.331Z,25.69
2018-07-09T10:16:14.303Z,25.40
2018-07-09T10:17:14.290Z,25.29
2018-07-09T10:18:14.285Z,25.44
2018-07-09T10:19:14.272Z,25.51
2018-07-09T10:20:14.258Z,25.70
2018-07-09T10:21:14.253Z,25.87
2018-07-09T10:22:14.233Z,26.18
2018-07-09T10:23:14.350Z,26.16
2018-07-09T10:24:14.240Z,26.19
2018-07-09T10:25:14.214Z,26.63
2018-07-09T10:26:14.202Z,26.85
2018-07-09T10:27:14.181Z,27.12
2018-07-09T10:28:14.189Z,27.20
2018-07-09T10:29:14.168Z,27.25
2018-07-09T10:30:14.149Z,27.21
2018-07-09T10:31:14.145Z,27.30
2018-07-09T10:32:14.162Z,27.22
2018-07-09T10:33:14.144Z,27.15
2018-07-09T10:34:14.157Z,26.96
2018-07-09T10:35:14.105Z,27.07
2018-07-09T10:36:14.092Z,27.12
2018-07-09T10:37:14.090Z,27.15
2018-07-09T10:38:14.105Z,27.10
2018-07-09T10:39:14.064Z,27.29
2018-07-09T10:40:14.051Z,27.40
2018-07-09T10:41:14.043Z,27.37
2018-07-09T10:42:14.032Z,27.60
2018-07-09T10:43:14.055Z,27.65
2018-07-09T10:44:14.016Z,27.87
2018-07-09T10:45:14.017Z,27.83
2018-07-09T10:46:13.998Z,27.78
2018-07-09T10:47:14.060Z,27.51
2018-07-09T10:48:13.993Z,27.48
2018-07-09T10:49:13.967Z,27.17
2018-07-09T10:50:13.960Z,27.30
2018-07-09T10:51:13.943Z,27.17
2018-07-09T10:52:13.935Z,27.03
2018-07-09T10:53:13.928Z,26.95
2018-07-09T10:54:13.914Z,26.89
2018-07-09T10:55:13.970Z,26.56
2018-07-09T10:56:13.914Z,26.37
2018-07-09T10:57:13.923Z,26.48
2018-07-09T10:58:13.910Z,26.43
2018-07-09T10:59:13.862Z,26.60
2018-07-09T11:00:13.859Z,26.71
2018-07-09T11:01:13.887Z,26.90
2018-07-09T11:02:13.833Z,27.08
2018-07-09T11:03:13.850Z,27.32
2018-07-09T11:04:13.823Z,27.32
2018-07-09T11:05:13.819Z,27.37
2018-07-09T11:06:13.796Z,26.97
2018-07-09T11:07:13.791Z,26.60
2018-07-09T11:08:13.803Z,26.38
2018-07-09T11:09:13.767Z,26.15
2018-07-09T11:10:13.760Z,26.15
2018-07-09T11:11:13.741Z,26.09
2018-07-09T11:12:13.735Z,26.23
2018-07-09T11:13:13.728Z,26.15
2018-07-09T11:14:13.732Z,26.31
2018-07-09T11:15:13.709Z,26.36
2018-07-09T11:16:13.706Z,26.47
2018-07-09T11:17:13.686Z,26.16
2018-07-09T11:18:13.682Z,26.19
2018-07-09T11:19:13.696Z,26.19
2018-07-09T11:20:13.696Z,26.15
2018-07-09T11:21:13.646Z,26.22
2018-07-09T11:22:13.660Z,26.03
2018-07-09T11:23:13.625Z,25.99
2018-07-09T11:24:13.659Z,25.93
2018-07-09T11:25:13.631Z,25.72
2018-07-09T11:26:13.589Z,25.54
2018-07-09T11:27:13.594Z,25.38
2018-07-09T11:28:13.572Z,25.38
2018-07-09T11:29:13.573Z,25.31
2018-07-09T11:30:13.556Z,25.17
2018-07-09T11:31:13.569Z,25.11
2018-07-09T11:32:13.531Z,25.13
2018-07-09T11:33:13.519Z,25.21
2018-07-09T11:34:13.507Z,25.35
2018-07-09T11:35:13.512Z,25.78
2018-07-09T11:36:13.491Z,26.22
2018-07-09T11:37:13.480Z,26.63
2018-07-09T11:38:13.466Z,27.25
2018-07-09T11:39:13.462Z,27.64
2018-07-09T11:40:13.475Z,27.68
2018-07-09T11:41:13.440Z,27.58
2018-07-09T11:42:13.450Z,27.64
2018-07-09T11:43:13.415Z,27.89
2018-07-09T11:44:13.407Z,28.15
2018-07-09T11:45:13.394Z,28.32
2018-07-09T11:46:13.402Z,28.12
2018-07-09T11:47:13.422Z,27.86
2018-07-09T11:48:13.372Z,27.77
2018-07-09T11:49:13.360Z,27.17
2018-07-09T11:50:13.351Z,27.14
2018-07-09T11:51:13.348Z,26.70
2018-07-09T11:52:13.399Z,26.22
2018-07-09T11:53:13.321Z,26.22
2018-07-09T11:54:13.309Z,25.93
2018-07-09T11:55:13.297Z,25.84
2018-07-09T11:56:13.286Z,25.90
2018-07-09T11:57:13.275Z,25.85
2018-07-09T11:58:13.278Z,25.75
2018-07-09T11:59:13.257Z,25.63
2018-07-09T12:00:13.261Z,25.38
2018-07-09T12:01:13.242Z,25.23
2018-07-09T12:02:13.232Z,25.03
2018-07-09T12:03:13.223Z,24.66
2018-07-09T12:04:13.204Z,24.45
2018-07-09T12:05:13.195Z,24.30
2018-07-09T12:06:13.210Z,24.13
2018-07-09T12:07:13.187Z,23.93
2018-07-09T12:08:13.186Z,23.68
2018-07-09T12:09:13.164Z,23.51
2018-07-09T12:10:13.182Z,23.48
2018-07-09T12:11:13.137Z,23.28
2018-07-09T12:12:13.125Z,23.27
2018-07-09T12:13:13.114Z,23.34
2018-07-09T12:14:13.104Z,23.39
2018-07-09T12:15:13.090Z,23.46
2018-07-09T12:16:13.096Z,23.69
2018-07-09T12:17:13.072Z,23.92
2018-07-09T12:18:13.062Z,23.98
2018-07-09T12:19:13.051Z,24.08
2018-07-09T12:20:13.043Z,24.36
2018-07-09T12:21:13.057Z,24.40
2018-07-09T12:22:13.018Z,24.38
2018-07-09T12:23:13.006Z,24.50
2018-07-09T12:24:12.996Z,24.57
2018-07-09T12:25:12.999Z,24.53
2018-07-09T12:26:12.978Z,24.50
2018-07-09T12:27:12.976Z,24.39
2018-07-09T12:28:12.950Z,24.32
2018-07-09T12:29:13.044Z,24.23
2018-07-09T12:30:12.951Z,24.02
2018-07-09T12:31:12.929Z,24.05
2018-07-09T12:32:12.916Z,23.98
2018-07-09T12:33:12.937Z,23.92
2018-07-09T12:34:12.895Z,23.74
2018-07-09T12:35:12.878Z,23.80
2018-07-09T12:36:12.953Z,23.88
2018-07-09T12:37:12.907Z,23.86
2018-07-09T12:38:12.853Z,23.86
2018-07-09T12:39:12.840Z,23.86
2018-07-09T12:40:12.833Z,23.84
2018-07-09T12:41:12.822Z,23.95
2018-07-09T12:42:12.806Z,24.06
2018-07-09T12:43:12.820Z,24.16
2018-07-09T12:44:12.791Z,24.50
2018-07-09T12:45:12.777Z,24.66
2018-07-09T12:46:12.765Z,24.81
2018-07-09T12:47:12.753Z,24.80
2018-07-09T12:48:12.746Z,24.96
2018-07-09T12:49:12.729Z,25.04
2018-07-09T12:50:12.733Z,24.96
2018-07-09T12:51:12.713Z,25.14
2018-07-09T12:52:12.705Z,25.40
2018-07-09T12:53:12.700Z,25.53
2018-07-09T12:54:12.680Z,25.85
2018-07-09T12:55:12.679Z,26.21
2018-07-09T12:56:12.660Z,26.58